Aérodrome :
LOGIN :

S'inscrire | Disclaimer

   EN    FR    IT 

 










Légende :    VFR   VFR Marginal   IFR   IFR Intensif   IFR Très Intensif
Visi : 
Plafond : 
>= 8 km
>= 3000ft
5 à 8 km
1000 à 3000 ft
1500m à 5 km
500 à 1000 ft
800 à 1500m
200 à 500 ft
< 800m
< 200 ft
Symboles :   Orages  Brouillard  Fortes neiges  Fortes précipitations  Vent > 20 kt
SIGMETs :   Divers  Orages  Givrage  Turbulence  Onde Orograph.  Cendres Volcan.







- Altitude de l'aérodrome : 309 ft
- Code IATA : FNI
- Voir les cartes d'approche


LFTW - Nîmes Garons

DERNIER METAR :
  • 222200Z AUTO 18003KT 8000 NSC 22/21 Q1018

METARs EXPIRÉS :
  • 222130Z AUTO VRB03KT 9000 FEW007 23/21 Q1018
  • 222100Z AUTO 16005KT 140V200 9999 OVC007 23/21 Q1018
  • 222030Z AUTO 17006KT 130V200 9999 BKN007 23/21 Q1018
  • 222000Z AUTO 18005KT 150V210 9999 BKN007 23/21 Q1018
  • 221930Z AUTO 15007KT CAVOK 23/21 Q1018

TAF TAF LFTW
Valide du 22 à 15h jusqu'au 23 à 15h UTC


221400Z 2215/2315 20012KT CAVOK
BECMG 2218/2220 VRB02KT
TEMPO 2300/2307 1200 BR
BECMG 2310/2312 20012KT
TEMPO 2313/2315 BKN030TCU
Pas de NOTAMs connus pour ce terrain.



MET'MAP, la Météo Aéronautique d'un coup d'oeil ! - Copyright ORBIFLY Décembre 2007 - Disclaimer

ORBIFLY MET'MAP TEAM :

Programmation & Développement : Alexandra Zaïnal
Conception & Développement : Baudouin d'Aumeries
Co-Programmation & Développement : Marc-Olivier Méhu
Soutien technique & logistique : Manuel Goepfert

Contact : metmap@orbifly.com




SOURCES & CREDITS :

   NOAA